Terminal Aerodrome Forecast
Issued by NWS

Home | Current Version | Previous Version | Text Only | Print | Product List | Glossary Off
Versions: 1 2 3 4 5 6 7 8 9 10 11 12 13 14 15 16 17 18 19

000
FTUS41 KCLE 211700
TAFFDY
TAF
KFDY 211724Z 2118/2218 22010G15KT P6SM BKN250
     FM212300 24009KT P6SM OVC100
     FM220100 24008KT P6SM OVC050
     FM220400 22009KT P6SM -SHRA OVC050
     FM220700 25012KT P6SM OVC012
     FM221000 30015G25KT P6SM OVC015
     FM221400 31020G30KT P6SM SCT250=

USA.gov is the U.S. government's official web portal to all federal, state and local government web resources and services.